createdAt,value
2023-04-03T00:01:05.166Z,6.20
2023-04-03T00:03:31.735Z,6.30
2023-04-03T00:05:58.293Z,6.30
2023-04-03T00:08:24.956Z,6.40
2023-04-03T00:10:51.645Z,6.40
2023-04-03T00:13:18.265Z,6.30
2023-04-03T00:15:45.337Z,6.10
2023-04-03T00:18:11.878Z,5.90
2023-04-03T00:20:38.794Z,5.90
2023-04-03T00:23:05.592Z,6.00
2023-04-03T00:25:32.493Z,6.00
2023-04-03T00:27:59.180Z,6.00
2023-04-03T00:30:26.129Z,5.90
2023-04-03T00:32:53.836Z,6.00
2023-04-03T00:35:22.075Z,6.10
2023-04-03T00:37:48.747Z,6.00
2023-04-03T00:40:16.509Z,5.90
2023-04-03T00:42:46.502Z,5.70
2023-04-03T00:45:54.113Z,5.70
2023-04-03T00:48:53.593Z,5.70
2023-04-03T00:51:29.349Z,5.70
2023-04-03T00:54:01.258Z,5.60
2023-04-03T00:56:30.705Z,5.50
2023-04-03T00:59:22.410Z,5.50
2023-04-03T01:01:49.911Z,5.50
2023-04-03T01:04:42.846Z,5.30
2023-04-03T01:07:17.459Z,5.10
2023-04-03T01:09:45.955Z,5.10
2023-04-03T01:12:20.789Z,5.00
2023-04-03T01:14:51.890Z,4.90
2023-04-03T01:19:47.965Z,4.90
2023-04-03T01:22:36.396Z,4.60
2023-04-03T01:25:03.049Z,4.60
2023-04-03T01:27:29.716Z,4.60
2023-04-03T01:29:56.288Z,4.70
2023-04-03T01:32:22.763Z,4.80
2023-04-03T01:34:49.263Z,4.60
2023-04-03T01:37:15.768Z,4.40
2023-04-03T01:39:42.282Z,4.40
2023-04-03T01:42:08.816Z,4.30
2023-04-03T01:44:35.890Z,4.10
2023-04-03T01:47:02.408Z,4.10
2023-04-03T01:49:28.926Z,4.10
2023-04-03T01:51:55.525Z,3.90
2023-04-03T01:54:21.980Z,3.80
2023-04-03T01:56:48.485Z,3.80
2023-04-03T01:59:17.241Z,3.90
2023-04-03T02:01:45.416Z,3.80
2023-04-03T02:04:12.809Z,3.80
2023-04-03T02:06:39.321Z,3.90
2023-04-03T02:09:05.936Z,4.00
2023-04-03T02:11:32.470Z,4.00
2023-04-03T02:13:58.932Z,3.80
2023-04-03T02:16:25.448Z,3.70
2023-04-03T02:18:51.985Z,3.70
2023-04-03T02:21:18.477Z,3.80
2023-04-03T02:23:44.968Z,3.90
2023-04-03T02:26:15.045Z,3.80
2023-04-03T02:28:41.555Z,3.70
2023-04-03T02:31:10.355Z,3.80
2023-04-03T02:33:37.236Z,3.90
2023-04-03T02:36:06.613Z,3.90
2023-04-03T02:38:33.568Z,3.90
2023-04-03T02:41:10.506Z,4.00
2023-04-03T02:43:38.390Z,4.10
2023-04-03T02:46:05.794Z,4.10
2023-04-03T02:48:32.872Z,4.10
2023-04-03T02:50:59.343Z,4.10
2023-04-03T02:53:25.823Z,4.30
2023-04-03T02:55:52.316Z,4.40
2023-04-03T02:58:18.786Z,4.30
2023-04-03T03:00:45.375Z,4.20
2023-04-03T03:03:13.663Z,4.30
2023-04-03T03:05:40.182Z,4.30
2023-04-03T03:08:06.643Z,4.40
2023-04-03T03:10:33.151Z,4.40
2023-04-03T03:12:59.670Z,4.50
2023-04-03T03:15:26.193Z,4.40
2023-04-03T03:17:52.711Z,4.40
2023-04-03T03:20:19.226Z,4.50
2023-04-03T03:22:45.745Z,4.40
2023-04-03T03:25:12.244Z,4.50
2023-04-03T03:27:38.748Z,4.60
2023-04-03T03:30:06.978Z,4.60
2023-04-03T03:32:33.474Z,4.60
2023-04-03T03:35:00.385Z,4.70
2023-04-03T03:37:27.306Z,4.60
2023-04-03T03:39:53.781Z,4.50
2023-04-03T03:42:20.267Z,4.40
2023-04-03T03:44:46.729Z,4.40
2023-04-03T03:47:13.218Z,4.30
2023-04-03T03:49:39.659Z,4.20
2023-04-03T03:52:06.127Z,4.10
2023-04-03T03:54:32.609Z,4.10
2023-04-03T03:56:59.090Z,4.20
2023-04-03T03:59:25.615Z,4.20
2023-04-03T04:01:52.087Z,4.10
2023-04-03T04:04:18.703Z,4.20
2023-04-03T04:06:45.263Z,4.20
2023-04-03T04:09:11.802Z,4.20
2023-04-03T04:11:40.052Z,4.30
2023-04-03T04:14:07.590Z,4.30
2023-04-03T04:16:34.129Z,4.20
2023-04-03T04:19:00.660Z,4.30
2023-04-03T04:21:27.174Z,4.30
2023-04-03T04:23:53.638Z,4.40
2023-04-03T04:26:21.414Z,4.40
2023-04-03T04:28:47.906Z,4.40
2023-04-03T04:31:14.393Z,4.30
2023-04-03T04:33:41.174Z,4.30
2023-04-03T04:36:07.926Z,4.30
2023-04-03T04:38:34.458Z,4.30
2023-04-03T04:41:00.959Z,4.30
2023-04-03T04:43:27.468Z,4.30
2023-04-03T04:46:10.650Z,4.40
2023-04-03T04:48:37.373Z,4.30
2023-04-03T04:51:04.149Z,4.30
2023-04-03T04:53:30.786Z,4.10
2023-04-03T04:55:57.343Z,4.20
2023-04-03T04:58:23.872Z,4.10
2023-04-03T05:00:50.424Z,4.20
2023-04-03T05:03:16.909Z,4.30
2023-04-03T05:05:43.449Z,4.30
2023-04-03T05:08:10.040Z,4.30
2023-04-03T05:10:36.532Z,4.30
2023-04-03T05:13:03.037Z,4.30
2023-04-03T05:15:29.546Z,4.50
2023-04-03T05:17:56.079Z,4.40
2023-04-03T05:20:22.635Z,4.50
2023-04-03T05:22:49.165Z,4.50
2023-04-03T05:25:15.815Z,4.50
2023-04-03T05:27:42.302Z,4.60
2023-04-03T05:30:09.752Z,4.60
2023-04-03T05:32:36.299Z,4.70
2023-04-03T05:35:03.151Z,4.70
2023-04-03T05:37:29.774Z,4.70
2023-04-03T05:39:56.392Z,4.80
2023-04-03T05:42:22.922Z,5.00
2023-04-03T05:44:50.390Z,5.10
2023-04-03T05:47:18.201Z,5.10
2023-04-03T05:49:45.622Z,5.10
2023-04-03T05:52:32.353Z,5.20
2023-04-03T05:54:58.865Z,5.30
2023-04-03T05:57:25.482Z,5.20
2023-04-03T05:59:52.053Z,5.20
2023-04-03T06:02:22.258Z,5.20
2023-04-03T06:04:49.095Z,5.40
2023-04-03T06:07:22.871Z,5.60
2023-04-03T06:09:51.539Z,5.80
2023-04-03T06:12:19.448Z,6.20
2023-04-03T06:14:45.999Z,6.60
2023-04-03T06:17:12.556Z,7.20
2023-04-03T06:19:39.419Z,7.70
2023-04-03T06:22:05.955Z,8.00
2023-04-03T06:24:32.788Z,8.30
2023-04-03T06:27:00.031Z,8.70
2023-04-03T06:29:26.573Z,8.90
2023-04-03T06:31:53.162Z,9.10
2023-04-03T06:34:20.534Z,9.30
2023-04-03T06:36:47.343Z,9.40
2023-04-03T06:39:22.848Z,9.60
2023-04-03T06:41:50.949Z,9.70
2023-04-03T06:44:17.730Z,9.90
2023-04-03T06:46:46.648Z,10.00
2023-04-03T06:49:13.703Z,10.00
2023-04-03T06:51:40.249Z,10.10
2023-04-03T06:54:08.430Z,10.40
2023-04-03T06:56:35.592Z,10.20
2023-04-03T06:59:02.440Z,10.20
2023-04-03T07:01:30.729Z,10.20
2023-04-03T07:03:58.477Z,10.00
2023-04-03T07:06:28.282Z,10.10
2023-04-03T07:08:55.979Z,10.00
2023-04-03T07:11:23.466Z,10.20
2023-04-03T07:13:50.663Z,10.10
2023-04-03T07:16:17.233Z,10.00
2023-04-03T07:18:43.822Z,9.60
2023-04-03T07:21:10.405Z,9.40
2023-04-03T07:23:37.389Z,9.40
2023-04-03T07:26:04.563Z,9.30
2023-04-03T07:28:31.070Z,8.90
2023-04-03T07:31:06.333Z,9.00
2023-04-03T07:33:33.390Z,9.10
2023-04-03T07:36:00.601Z,9.60
2023-04-03T07:38:27.465Z,9.90
2023-04-03T07:40:54.032Z,9.60
2023-04-03T07:43:22.480Z,9.10
2023-04-03T07:45:51.012Z,9.00
2023-04-03T07:48:25.859Z,9.00
2023-04-03T07:50:53.040Z,8.90
2023-04-03T07:53:22.477Z,8.80
2023-04-03T07:55:51.806Z,8.90
2023-04-03T07:58:19.288Z,8.80
2023-04-03T08:00:46.299Z,8.60
2023-04-03T08:03:14.486Z,8.50
2023-04-03T08:05:43.144Z,8.40
2023-04-03T08:08:12.534Z,8.50
2023-04-03T08:10:39.043Z,8.60
2023-04-03T08:13:09.798Z,8.70
2023-04-03T08:15:37.035Z,8.90
2023-04-03T08:18:04.669Z,9.00
2023-04-03T08:20:31.276Z,8.80
2023-04-03T08:22:57.896Z,8.80
2023-04-03T08:25:24.713Z,8.70
2023-04-03T08:27:51.314Z,8.60
2023-04-03T08:30:17.945Z,8.60
2023-04-03T08:32:44.715Z,8.60
2023-04-03T08:35:11.726Z,8.70
2023-04-03T08:37:39.790Z,8.90
2023-04-03T08:40:13.151Z,8.90
2023-04-03T08:43:37.918Z,8.90
2023-04-03T08:46:11.893Z,8.90
2023-04-03T08:48:43.524Z,8.60
2023-04-03T08:51:20.813Z,8.40
2023-04-03T08:54:04.686Z,8.40
2023-04-03T08:56:35.058Z,8.50
2023-04-03T08:59:12.482Z,8.60
2023-04-03T09:01:42.262Z,8.80
2023-04-03T09:04:16.125Z,9.00
2023-04-03T09:06:54.400Z,8.90
2023-04-03T09:09:41.090Z,8.90
2023-04-03T09:12:49.328Z,9.00
2023-04-03T09:15:37.958Z,8.80
2023-04-03T09:18:27.828Z,8.70
2023-04-03T09:21:48.100Z,8.70
2023-04-03T09:24:17.577Z,8.70
2023-04-03T09:27:02.669Z,9.20
2023-04-03T09:29:29.383Z,9.80
2023-04-03T09:32:26.536Z,10.20
2023-04-03T09:34:59.724Z,10.80
2023-04-03T09:37:42.948Z,11.30
2023-04-03T09:42:26.963Z,11.00
2023-04-03T09:45:05.614Z,10.70
2023-04-03T09:47:37.164Z,10.00
2023-04-03T09:50:23.526Z,9.40
2023-04-03T09:52:52.646Z,9.00
2023-04-03T09:55:29.811Z,8.90
2023-04-03T09:58:03.460Z,9.20
2023-04-03T10:00:40.869Z,9.70
2023-04-03T10:03:35.012Z,10.20
2023-04-03T10:06:03.148Z,10.50
2023-04-03T10:08:33.529Z,10.30
2023-04-03T10:11:17.173Z,10.20
2023-04-03T10:15:43.166Z,10.10
2023-04-03T10:19:19.210Z,10.00
2023-04-03T10:23:50.896Z,9.90
2023-04-03T10:26:58.301Z,10.50
2023-04-03T10:29:59.918Z,11.10
2023-04-03T10:33:01.877Z,10.50
2023-04-03T10:35:50.388Z,9.90
2023-04-03T10:38:55.384Z,10.20
2023-04-03T10:46:09.397Z,10.20
2023-04-03T10:49:13.516Z,10.70
2023-04-03T10:52:43.478Z,10.70
2023-04-03T10:55:42.247Z,10.60
2023-04-03T10:58:28.849Z,10.60
2023-04-03T11:01:01.947Z,10.30
2023-04-03T11:03:41.588Z,10.50
2023-04-03T11:06:12.803Z,10.50
2023-04-03T11:09:09.105Z,10.40
2023-04-03T11:11:40.056Z,10.30
2023-04-03T11:14:32.511Z,10.70
2023-04-03T11:19:00.211Z,10.80
2023-04-03T11:21:57.491Z,10.90
2023-04-03T11:24:31.779Z,11.20
2023-04-03T11:27:04.083Z,11.00
2023-04-03T11:29:36.760Z,11.20
2023-04-03T11:34:46.140Z,11.00
2023-04-03T11:37:38.512Z,10.20
2023-04-03T11:40:25.628Z,10.70
2023-04-03T11:43:06.496Z,11.00
2023-04-03T11:45:38.654Z,11.10
2023-04-03T11:48:46.538Z,10.40
2023-04-03T11:51:55.450Z,9.80
2023-04-03T11:54:47.082Z,10.20
2023-04-03T11:58:20.796Z,10.30
2023-04-03T12:00:59.049Z,10.00
2023-04-03T12:04:07.318Z,10.10
2023-04-03T12:06:58.890Z,9.70
2023-04-03T12:09:53.537Z,9.90
2023-04-03T12:12:40.629Z,10.10
2023-04-03T12:15:53.046Z,10.40
2023-04-03T12:22:11.272Z,10.30
2023-04-03T12:24:42.615Z,10.30
2023-04-03T12:29:14.089Z,10.50
2023-04-03T12:35:47.420Z,10.60
2023-04-03T12:39:03.796Z,10.10
2023-04-03T12:42:04.304Z,9.40
2023-04-03T12:45:20.587Z,9.50
2023-04-03T12:47:52.572Z,9.80
2023-04-03T12:50:34.115Z,10.00
2023-04-03T12:53:12.190Z,10.10
2023-04-03T12:55:38.987Z,9.90
2023-04-03T12:58:27.545Z,9.70
2023-04-03T13:01:11.486Z,9.90
2023-04-03T13:03:46.017Z,9.70
2023-04-03T13:06:33.123Z,9.70
2023-04-03T13:09:01.925Z,9.70
2023-04-03T13:11:37.054Z,9.70
2023-04-03T13:14:16.555Z,9.50
2023-04-03T13:17:15.052Z,9.50
2023-04-03T13:19:43.374Z,9.60
2023-04-03T13:22:43.694Z,10.00
2023-04-03T13:25:15.279Z,10.10
2023-04-03T13:27:44.189Z,10.10
2023-04-03T13:30:37.484Z,10.00
2023-04-03T13:33:22.166Z,10.00
2023-04-03T13:36:08.086Z,9.90
2023-04-03T13:38:36.728Z,9.90
2023-04-03T13:41:35.417Z,9.70
2023-04-03T13:44:44.285Z,9.40
2023-04-03T13:47:26.179Z,9.60
2023-04-03T13:50:22.800Z,9.60
2023-04-03T13:53:13.725Z,9.20
2023-04-03T13:56:17.497Z,9.10
2023-04-03T13:59:55.641Z,9.40
2023-04-03T14:02:34.678Z,9.60
2023-04-03T14:05:08.488Z,9.50
2023-04-03T14:07:35.586Z,9.70
2023-04-03T14:10:02.142Z,9.70
2023-04-03T14:12:35.139Z,9.50
2023-04-03T14:15:05.656Z,9.40
2023-04-03T14:17:32.589Z,9.30
2023-04-03T14:20:01.120Z,9.20
2023-04-03T14:22:32.652Z,9.10
2023-04-03T14:24:59.799Z,8.80
2023-04-03T14:27:42.385Z,8.80
2023-04-03T14:30:21.028Z,9.00
2023-04-03T14:32:48.423Z,9.10
2023-04-03T14:35:16.629Z,9.10
2023-04-03T14:37:44.002Z,8.90
2023-04-03T14:40:17.586Z,8.80
2023-04-03T14:42:44.596Z,8.70
2023-04-03T14:45:13.444Z,8.70
2023-04-03T14:47:55.119Z,8.80
2023-04-03T14:50:25.846Z,9.00
2023-04-03T14:52:58.916Z,9.10
2023-04-03T14:55:27.922Z,9.10
2023-04-03T14:57:55.077Z,9.10
2023-04-03T15:00:22.887Z,9.10
2023-04-03T15:02:49.756Z,9.20
2023-04-03T15:05:17.026Z,9.50
2023-04-03T15:07:56.578Z,9.40
2023-04-03T15:10:31.693Z,9.40
2023-04-03T15:12:58.281Z,9.20
2023-04-03T15:15:29.140Z,9.10
2023-04-03T15:18:00.223Z,8.70
2023-04-03T15:20:30.708Z,8.50
2023-04-03T15:22:57.556Z,8.40
2023-04-03T15:25:25.466Z,8.20
2023-04-03T15:27:52.888Z,8.10
2023-04-03T15:30:20.163Z,8.00
2023-04-03T15:32:47.318Z,8.00
2023-04-03T15:35:14.091Z,7.80
2023-04-03T15:37:40.581Z,7.80
2023-04-03T15:40:08.372Z,7.80
2023-04-03T15:42:35.063Z,7.80
2023-04-03T15:45:01.795Z,7.90
2023-04-03T15:47:28.755Z,7.90
2023-04-03T15:49:56.301Z,7.90
2023-04-03T15:52:22.859Z,7.90
2023-04-03T15:54:49.631Z,7.70
2023-04-03T15:57:16.163Z,7.60
2023-04-03T15:59:42.758Z,7.60
2023-04-03T16:02:13.083Z,7.50
2023-04-03T16:04:39.662Z,7.50
2023-04-03T16:07:06.199Z,7.50
2023-04-03T16:09:36.267Z,7.50
2023-04-03T16:12:03.769Z,7.60
2023-04-03T16:14:30.685Z,7.40
2023-04-03T16:17:00.143Z,7.30
2023-04-03T16:19:26.832Z,7.20
2023-04-03T16:21:55.470Z,7.20
2023-04-03T16:24:22.327Z,7.10
2023-04-03T16:26:48.994Z,6.90
2023-04-03T16:29:15.510Z,6.80
2023-04-03T16:31:42.371Z,6.70
2023-04-03T16:34:08.900Z,6.90
2023-04-03T16:36:35.430Z,6.90
2023-04-03T16:39:02.045Z,6.90
2023-04-03T16:41:28.562Z,7.10
2023-04-03T16:43:55.059Z,7.00
2023-04-03T16:46:21.566Z,7.00
2023-04-03T16:48:48.049Z,7.00
2023-04-03T16:51:14.564Z,6.90
2023-04-03T16:53:41.073Z,6.70
2023-04-03T16:56:07.578Z,6.70
2023-04-03T16:58:34.132Z,6.70
2023-04-03T17:01:20.413Z,6.60
2023-04-03T17:03:47.023Z,6.60
2023-04-03T17:06:19.311Z,6.50
2023-04-03T17:08:48.624Z,6.40
2023-04-03T17:11:15.434Z,6.20
2023-04-03T17:13:42.071Z,6.20
2023-04-03T17:16:14.461Z,6.20
2023-04-03T17:18:42.348Z,6.10
2023-04-03T17:21:09.082Z,6.10
2023-04-03T17:23:39.434Z,6.10
2023-04-03T17:26:06.014Z,6.10
2023-04-03T17:28:32.536Z,6.10
2023-04-03T17:31:04.360Z,6.00
2023-04-03T17:33:31.188Z,6.00
2023-04-03T17:36:03.756Z,5.90
2023-04-03T17:38:34.021Z,5.80
2023-04-03T17:41:05.165Z,5.70
2023-04-03T17:43:32.920Z,5.70
2023-04-03T17:46:10.926Z,5.60
2023-04-03T17:48:40.533Z,5.60
2023-04-03T17:51:14.719Z,5.60
2023-04-03T17:53:43.729Z,5.50
2023-04-03T17:56:22.024Z,5.50
2023-04-03T17:58:50.253Z,5.40
2023-04-03T18:01:24.955Z,5.40
2023-04-03T18:03:58.944Z,5.40
2023-04-03T18:06:36.419Z,5.40
2023-04-03T18:09:10.548Z,5.30
2023-04-03T18:11:37.642Z,5.30
2023-04-03T18:14:08.980Z,5.40
2023-04-03T18:16:35.636Z,5.30
2023-04-03T18:27:58.561Z,5.30
2023-04-03T18:30:25.823Z,5.20
2023-04-03T18:32:52.359Z,5.20
2023-04-03T18:35:19.007Z,5.20
2023-04-03T18:37:45.466Z,5.10
2023-04-03T18:40:12.942Z,5.10
2023-04-03T18:42:41.923Z,5.10
2023-04-03T18:45:12.777Z,5.10
2023-04-03T18:47:39.506Z,5.10
2023-04-03T18:50:07.644Z,5.00
2023-04-03T18:52:34.170Z,5.00
2023-04-03T18:55:00.728Z,5.00
2023-04-03T18:57:27.222Z,5.00
2023-04-03T18:59:53.740Z,5.00
2023-04-03T19:02:22.053Z,4.90
2023-04-03T19:04:48.962Z,5.00
2023-04-03T19:07:15.486Z,5.00
2023-04-03T19:09:41.996Z,5.10
2023-04-03T19:12:08.541Z,5.10
2023-04-03T19:14:35.035Z,5.00
2023-04-03T19:17:03.145Z,5.00
2023-04-03T19:19:29.844Z,5.10
2023-04-03T19:21:56.343Z,5.00
2023-04-03T19:24:22.884Z,4.90
2023-04-03T19:26:49.625Z,4.60
2023-04-03T19:29:16.120Z,4.80
2023-04-03T19:31:42.631Z,4.70
2023-04-03T19:34:09.127Z,4.70
2023-04-03T19:36:36.465Z,4.70
2023-04-03T19:39:04.511Z,4.70
2023-04-03T19:41:34.508Z,4.60
2023-04-03T19:44:02.849Z,4.40
2023-04-03T19:46:30.043Z,4.10
2023-04-03T19:48:57.061Z,4.00
2023-04-03T19:51:23.652Z,4.10
2023-04-03T19:53:50.969Z,4.30
2023-04-03T19:56:17.630Z,4.20
2023-04-03T19:58:44.816Z,4.20
2023-04-03T20:01:11.346Z,4.30
2023-04-03T20:03:38.460Z,4.40
2023-04-03T20:06:05.262Z,4.40
2023-04-03T20:08:31.995Z,4.40
2023-04-03T20:10:58.501Z,4.40
2023-04-03T20:13:24.992Z,4.40
2023-04-03T20:15:52.685Z,4.50
2023-04-03T20:18:20.489Z,4.70
2023-04-03T20:20:56.044Z,4.60
2023-04-03T20:23:23.573Z,4.50
2023-04-03T20:26:05.757Z,4.40
2023-04-03T20:28:37.081Z,4.30
2023-04-03T20:31:04.052Z,4.40
2023-04-03T20:33:30.728Z,4.50
2023-04-03T20:35:58.012Z,4.30
2023-04-03T20:38:24.835Z,4.30
2023-04-03T20:40:51.589Z,4.40
2023-04-03T20:43:18.659Z,4.50
2023-04-03T20:45:45.356Z,4.40
2023-04-03T20:48:12.194Z,4.50
2023-04-03T20:50:38.956Z,4.40
2023-04-03T20:53:05.897Z,4.40
2023-04-03T20:55:32.778Z,4.50
2023-04-03T20:58:01.202Z,4.50
2023-04-03T21:00:31.457Z,4.60
2023-04-03T21:02:58.945Z,4.50
2023-04-03T21:05:27.864Z,4.30
2023-04-03T21:08:49.847Z,4.20
2023-04-03T21:12:11.782Z,4.30
2023-04-03T21:15:33.766Z,4.20
2023-04-03T21:19:21.896Z,4.10
2023-04-03T21:21:49.057Z,4.20
2023-04-03T21:24:17.810Z,4.20
2023-04-03T21:26:45.307Z,4.20
2023-04-03T21:29:12.048Z,4.30
2023-04-03T21:31:58.947Z,4.20
2023-04-03T21:34:34.482Z,4.20
2023-04-03T21:37:08.068Z,4.20
2023-04-03T21:39:34.689Z,4.20
2023-04-03T21:42:01.207Z,4.10
2023-04-03T21:44:27.903Z,4.10
2023-04-03T21:46:54.478Z,4.30
2023-04-03T21:49:23.154Z,4.30
2023-04-03T21:51:52.741Z,4.20
2023-04-03T21:54:20.093Z,4.10
2023-04-03T21:56:47.520Z,4.10
2023-04-03T21:59:14.484Z,4.10
2023-04-03T22:01:41.178Z,4.00
2023-04-03T22:04:07.677Z,4.10
2023-04-03T22:06:34.201Z,4.00
2023-04-03T22:09:01.469Z,4.00
2023-04-03T22:11:28.281Z,3.90
2023-04-03T22:13:55.576Z,3.80
2023-04-03T22:16:22.521Z,3.90
2023-04-03T22:18:51.299Z,3.80
2023-04-03T22:21:17.854Z,3.70
2023-04-03T22:23:44.354Z,3.80
2023-04-03T22:26:12.833Z,3.80
2023-04-03T22:28:45.820Z,3.70
2023-04-03T22:31:13.583Z,3.60
2023-04-03T22:33:41.605Z,3.70
2023-04-03T22:36:11.760Z,3.60
2023-04-03T22:38:42.590Z,3.60
2023-04-03T22:41:09.339Z,3.60
2023-04-03T22:43:37.344Z,3.60
2023-04-03T22:46:09.597Z,3.60
2023-04-03T22:48:37.837Z,3.50
2023-04-03T22:51:08.423Z,3.40
2023-04-03T22:53:35.638Z,3.40
2023-04-03T22:56:07.771Z,3.40
2023-04-03T22:58:34.410Z,3.30
2023-04-03T23:01:12.871Z,3.30
2023-04-03T23:03:41.783Z,3.20
2023-04-03T23:06:09.898Z,3.10
2023-04-03T23:08:43.056Z,3.00
2023-04-03T23:11:09.822Z,2.90
2023-04-03T23:13:36.974Z,2.70
2023-04-03T23:16:04.368Z,2.70
2023-04-03T23:18:31.980Z,2.80
2023-04-03T23:21:00.398Z,2.70
2023-04-03T23:23:27.021Z,2.60
2023-04-03T23:25:59.314Z,2.60
2023-04-03T23:28:26.644Z,2.60
2023-04-03T23:31:06.218Z,2.70
2023-04-03T23:33:33.540Z,2.80
2023-04-03T23:36:07.780Z,2.80
2023-04-03T23:38:35.207Z,2.70
2023-04-03T23:41:01.706Z,2.80
2023-04-03T23:43:28.260Z,2.80
2023-04-03T23:45:55.061Z,2.80
2023-04-03T23:48:21.572Z,2.80
2023-04-03T23:50:48.070Z,2.70
2023-04-03T23:53:14.624Z,2.60
2023-04-03T23:55:41.501Z,2.60
2023-04-03T23:58:08.030Z,2.60
